Coosaw, South Carolina
Current Conditions -  °F | °C
As of 10:56 AM on Wednesday 22 Oct 2014 (Local Time) from KNBC Reporting Station
Clear Clear  
Wind Chill: 63°   Ceiling: Unl
Heat Index: 63°   Visibility: 10mi
Dew Point: 43°   Wind: 14mph
Humidity: 48%   Direction: 20°NNE
Pressure: 30.06"   Gusts: NA
Location:  32.5229°N, 80.7459°W
Report Text: KNBC 221456Z 02012KT 10SM CLR 17/06 A3006 RMK AO2 SLP180 T01720061 50011 $
Loading
Personal Weather Stations






























Interactive Weather Map
Tropical Storm Tracking
New forecast layout! Learn more

10-Day Weather Forecast

Advertisements
Track Severe Weather on mobile